This is the latest recevied weather packets stored in our database for station/object F4JUT-10. If no packets are shown the sender has not sent any weather packets the latest 10 day(s).
| Time | Temp. | Humidity | Pressure | Rain* | Wind** | Luminosity | Snow |
|---|---|---|---|---|---|---|---|
| 1777709864 | 22.22° C | 32% | 1025.6 hPa | - | - | - | - |
| 1777708964 | 22.22° C | 34% | 1025.6 hPa | - | - | - | - |
| 1777708064 | 20.56° C | 36% | 1025.6 hPa | - | - | - | - |
| 1777707164 | 20° C | 37% | 1025.8 hPa | - | - | - | - |
| 1777706264 | 18.89° C | 40% | 1025.9 hPa | - | - | - | - |
| 1777705364 | 18.33° C | 44% | 1025.9 hPa | - | - | - | - |
| 1777704474 | 16.67° C | 44% | 1026 hPa | - | - | - | - |
| 1777703574 | 15° C | 46% | 1025.9 hPa | - | - | - | - |
| 1777702674 | 13.33° C | 50% | 1025.9 hPa | - | - | - | - |
| 1777701774 | 12.22° C | 52% | 1026 hPa | - | - | - | - |
| 1777700873 | 12.22° C | 52% | 1026.1 hPa | - | - | - | - |
| 1777699974 | 12.22° C | 52% | 1026 hPa | - | - | - | - |
| 1777699073 | 11.67° C | 54% | 1025.8 hPa | - | - | - | - |
| 1777698173 | 11.11° C | 55% | 1025.8 hPa | - | - | - | - |
| 1777697273 | 10.56° C | 56% | 1025.7 hPa | - | - | - | - |
| 1777696373 | 10.56° C | 56% | 1025.9 hPa | - | - | - | - |
| 1777695473 | 10.56° C | 57% | 1025.8 hPa | - | - | - | - |
| 1777694573 | 10.56° C | 57% | 1025.9 hPa | - | - | - | - |
| 1777693673 | 11.11° C | 56% | 1025.9 hPa | - | - | - | - |
| 1777692773 | 11.11° C | 56% | 1026 hPa | - | - | - | - |
| 1777691873 | 11.11° C | 56% | 1026 hPa | - | - | - | - |
| 1777690972 | 11.11° C | 56% | 1026.1 hPa | - | - | - | - |
| 1777690072 | 11.11° C | 56% | 1026.1 hPa | - | - | - | - |
| 1777689172 | 11.11° C | 55% | 1026.1 hPa | - | - | - | - |
| 1777688272 | 11.67° C | 54% | 1026.2 hPa | - | - | - | - |
* Rain since midnight (hover to see other rain measurements)
** Current wind speed in m/s (hover to see current wind gust speed)